sensor_id;sensor_type;location;lat;lon;timestamp;P1;durP1;ratioP1;P2;durP2;ratioP2
23406;SDS011;11876;53.438;18.942;2023-07-31T00:01:43;3.85;;;3.45;;
23406;SDS011;11876;53.438;18.942;2023-07-31T00:06:45;4.55;;;3.58;;
23406;SDS011;11876;53.438;18.942;2023-07-31T00:11:48;7.03;;;3.70;;
23406;SDS011;11876;53.438;18.942;2023-07-31T00:16:50;3.80;;;3.03;;
23406;SDS011;11876;53.438;18.942;2023-07-31T00:21:53;2.15;;;2.05;;
23406;SDS011;11876;53.438;18.942;2023-07-31T00:26:55;3.15;;;2.22;;
23406;SDS011;11876;53.438;18.942;2023-07-31T00:31:57;2.33;;;2.08;;
23406;SDS011;11876;53.438;18.942;2023-07-31T00:37:00;3.47;;;1.85;;
23406;SDS011;11876;53.438;18.942;2023-07-31T00:42:03;2.72;;;2.03;;
23406;SDS011;11876;53.438;18.942;2023-07-31T00:47:08;4.32;;;2.40;;
23406;SDS011;11876;53.438;18.942;2023-07-31T00:52:10;2.30;;;2.05;;
23406;SDS011;11876;53.438;18.942;2023-07-31T00:57:13;2.80;;;2.55;;
23406;SDS011;11876;53.438;18.942;2023-07-31T01:02:16;3.20;;;2.30;;
23406;SDS011;11876;53.438;18.942;2023-07-31T01:12:42;2.65;;;2.45;;
23406;SDS011;11876;53.438;18.942;2023-07-31T01:17:48;5.00;;;2.10;;
23406;SDS011;11876;53.438;18.942;2023-07-31T01:23:08;2.53;;;2.00;;
23406;SDS011;11876;53.438;18.942;2023-07-31T01:34:02;3.50;;;2.55;;
23406;SDS011;11876;53.438;18.942;2023-07-31T01:39:05;4.30;;;2.25;;
23406;SDS011;11876;53.438;18.942;2023-07-31T01:44:07;2.60;;;2.13;;
23406;SDS011;11876;53.438;18.942;2023-07-31T01:49:10;6.80;;;2.33;;
23406;SDS011;11876;53.438;18.942;2023-07-31T01:54:12;2.40;;;2.20;;
23406;SDS011;11876;53.438;18.942;2023-07-31T01:59:15;3.38;;;2.45;;
23406;SDS011;11876;53.438;18.942;2023-07-31T02:04:17;3.95;;;2.50;;
23406;SDS011;11876;53.438;18.942;2023-07-31T02:09:20;2.95;;;2.40;;
23406;SDS011;11876;53.438;18.942;2023-07-31T02:14:23;3.55;;;2.72;;
23406;SDS011;11876;53.438;18.942;2023-07-31T02:19:26;3.40;;;2.65;;
23406;SDS011;11876;53.438;18.942;2023-07-31T02:24:28;6.63;;;2.72;;
23406;SDS011;11876;53.438;18.942;2023-07-31T02:29:32;3.28;;;2.53;;
23406;SDS011;11876;53.438;18.942;2023-07-31T02:34:35;3.15;;;2.17;;
23406;SDS011;11876;53.438;18.942;2023-07-31T02:39:38;3.80;;;2.60;;
23406;SDS011;11876;53.438;18.942;2023-07-31T02:44:40;7.72;;;3.03;;
23406;SDS011;11876;53.438;18.942;2023-07-31T02:49:42;3.78;;;2.72;;
23406;SDS011;11876;53.438;18.942;2023-07-31T02:54:45;4.95;;;3.03;;
23406;SDS011;11876;53.438;18.942;2023-07-31T02:59:47;3.72;;;2.60;;
23406;SDS011;11876;53.438;18.942;2023-07-31T03:04:50;4.32;;;2.80;;
23406;SDS011;11876;53.438;18.942;2023-07-31T03:09:52;4.82;;;2.85;;
23406;SDS011;11876;53.438;18.942;2023-07-31T03:14:55;4.35;;;3.05;;
23406;SDS011;11876;53.438;18.942;2023-07-31T03:19:57;3.55;;;2.90;;
23406;SDS011;11876;53.438;18.942;2023-07-31T03:24:59;3.40;;;2.65;;
23406;SDS011;11876;53.438;18.942;2023-07-31T03:30:02;3.00;;;2.70;;
23406;SDS011;11876;53.438;18.942;2023-07-31T03:35:05;5.15;;;3.00;;
23406;SDS011;11876;53.438;18.942;2023-07-31T03:40:08;5.63;;;3.20;;
23406;SDS011;11876;53.438;18.942;2023-07-31T03:45:11;4.65;;;2.60;;
23406;SDS011;11876;53.438;18.942;2023-07-31T03:50:14;4.72;;;2.70;;
23406;SDS011;11876;53.438;18.942;2023-07-31T03:55:16;4.05;;;2.97;;
23406;SDS011;11876;53.438;18.942;2023-07-31T04:00:19;2.22;;;2.03;;
23406;SDS011;11876;53.438;18.942;2023-07-31T04:05:23;4.35;;;2.45;;
23406;SDS011;11876;53.438;18.942;2023-07-31T04:10:26;4.80;;;2.33;;
23406;SDS011;11876;53.438;18.942;2023-07-31T04:15:28;3.45;;;2.13;;
23406;SDS011;11876;53.438;18.942;2023-07-31T04:20:31;3.67;;;2.25;;
23406;SDS011;11876;53.438;18.942;2023-07-31T04:25:33;2.58;;;2.38;;
23406;SDS011;11876;53.438;18.942;2023-07-31T04:30:36;3.15;;;2.30;;
23406;SDS011;11876;53.438;18.942;2023-07-31T04:35:39;4.03;;;2.00;;
23406;SDS011;11876;53.438;18.942;2023-07-31T04:40:41;3.38;;;1.95;;
23406;SDS011;11876;53.438;18.942;2023-07-31T04:45:47;3.85;;;1.90;;
23406;SDS011;11876;53.438;18.942;2023-07-31T04:50:51;4.38;;;2.17;;
23406;SDS011;11876;53.438;18.942;2023-07-31T04:55:53;2.63;;;1.90;;
23406;SDS011;11876;53.438;18.942;2023-07-31T05:00:56;5.97;;;2.40;;
23406;SDS011;11876;53.438;18.942;2023-07-31T05:05:58;2.75;;;2.15;;
23406;SDS011;11876;53.438;18.942;2023-07-31T05:11:01;5.50;;;2.35;;
23406;SDS011;11876;53.438;18.942;2023-07-31T05:16:04;4.35;;;2.08;;
23406;SDS011;11876;53.438;18.942;2023-07-31T05:21:07;3.28;;;1.80;;
23406;SDS011;11876;53.438;18.942;2023-07-31T05:26:09;2.35;;;1.95;;
23406;SDS011;11876;53.438;18.942;2023-07-31T05:31:12;5.05;;;2.53;;
23406;SDS011;11876;53.438;18.942;2023-07-31T05:36:14;2.75;;;1.85;;
23406;SDS011;11876;53.438;18.942;2023-07-31T05:41:17;2.47;;;2.00;;
23406;SDS011;11876;53.438;18.942;2023-07-31T05:46:20;5.22;;;2.30;;
23406;SDS011;11876;53.438;18.942;2023-07-31T05:51:22;7.82;;;2.42;;
23406;SDS011;11876;53.438;18.942;2023-07-31T05:56:25;4.93;;;2.00;;
23406;SDS011;11876;53.438;18.942;2023-07-31T06:01:29;3.80;;;2.03;;
23406;SDS011;11876;53.438;18.942;2023-07-31T06:06:32;5.40;;;2.10;;
23406;SDS011;11876;53.438;18.942;2023-07-31T06:11:35;5.97;;;2.25;;
23406;SDS011;11876;53.438;18.942;2023-07-31T06:16:37;3.30;;;2.25;;
23406;SDS011;11876;53.438;18.942;2023-07-31T06:21:40;5.05;;;2.28;;
23406;SDS011;11876;53.438;18.942;2023-07-31T06:26:44;4.25;;;2.47;;
23406;SDS011;11876;53.438;18.942;2023-07-31T06:31:47;7.22;;;2.67;;
23406;SDS011;11876;53.438;18.942;2023-07-31T06:36:49;5.13;;;2.40;;
23406;SDS011;11876;53.438;18.942;2023-07-31T06:41:52;3.33;;;2.30;;
23406;SDS011;11876;53.438;18.942;2023-07-31T06:46:55;4.75;;;2.03;;
23406;SDS011;11876;53.438;18.942;2023-07-31T06:51:57;5.10;;;2.08;;
23406;SDS011;11876;53.438;18.942;2023-07-31T06:57:00;3.30;;;1.80;;
23406;SDS011;11876;53.438;18.942;2023-07-31T07:02:02;2.67;;;1.42;;
23406;SDS011;11876;53.438;18.942;2023-07-31T07:07:07;4.65;;;1.55;;
23406;SDS011;11876;53.438;18.942;2023-07-31T07:12:10;4.40;;;1.70;;
23406;SDS011;11876;53.438;18.942;2023-07-31T07:17:12;5.78;;;1.92;;
23406;SDS011;11876;53.438;18.942;2023-07-31T07:22:15;7.18;;;2.42;;
23406;SDS011;11876;53.438;18.942;2023-07-31T07:27:17;4.75;;;1.67;;
23406;SDS011;11876;53.438;18.942;2023-07-31T07:32:20;3.20;;;1.55;;
23406;SDS011;11876;53.438;18.942;2023-07-31T07:37:23;4.57;;;1.45;;
23406;SDS011;11876;53.438;18.942;2023-07-31T07:42:25;2.67;;;1.30;;
23406;SDS011;11876;53.438;18.942;2023-07-31T07:47:28;3.97;;;1.17;;
23406;SDS011;11876;53.438;18.942;2023-07-31T07:52:30;3.55;;;1.30;;
23406;SDS011;11876;53.438;18.942;2023-07-31T07:57:33;2.17;;;1.00;;
23406;SDS011;11876;53.438;18.942;2023-07-31T08:02:35;2.65;;;1.05;;
23406;SDS011;11876;53.438;18.942;2023-07-31T08:07:38;1.90;;;1.00;;
23406;SDS011;11876;53.438;18.942;2023-07-31T08:12:40;2.35;;;1.20;;
23406;SDS011;11876;53.438;18.942;2023-07-31T08:17:43;4.00;;;1.35;;
23406;SDS011;11876;53.438;18.942;2023-07-31T08:22:45;1.75;;;1.08;;
23406;SDS011;11876;53.438;18.942;2023-07-31T08:27:48;3.42;;;1.10;;
23406;SDS011;11876;53.438;18.942;2023-07-31T08:32:50;2.25;;;1.02;;
23406;SDS011;11876;53.438;18.942;2023-07-31T08:37:53;1.58;;;0.93;;
23406;SDS011;11876;53.438;18.942;2023-07-31T08:42:56;6.32;;;1.88;;
23406;SDS011;11876;53.438;18.942;2023-07-31T08:48:00;2.70;;;1.20;;
23406;SDS011;11876;53.438;18.942;2023-07-31T08:53:03;1.52;;;0.90;;
23406;SDS011;11876;53.438;18.942;2023-07-31T08:58:05;3.00;;;1.00;;
23406;SDS011;11876;53.438;18.942;2023-07-31T09:03:09;8.30;;;1.38;;
23406;SDS011;11876;53.438;18.942;2023-07-31T09:08:17;2.75;;;0.82;;
23406;SDS011;11876;53.438;18.942;2023-07-31T09:13:21;3.92;;;1.38;;
23406;SDS011;11876;53.438;18.942;2023-07-31T09:18:23;1.40;;;0.80;;
23406;SDS011;11876;53.438;18.942;2023-07-31T09:23:26;1.80;;;1.00;;
23406;SDS011;11876;53.438;18.942;2023-07-31T09:28:30;3.30;;;0.90;;
23406;SDS011;11876;53.438;18.942;2023-07-31T09:33:34;6.15;;;1.30;;
23406;SDS011;11876;53.438;18.942;2023-07-31T09:38:56;6.40;;;1.38;;
23406;SDS011;11876;53.438;18.942;2023-07-31T09:44:06;5.07;;;1.50;;
23406;SDS011;11876;53.438;18.942;2023-07-31T09:49:09;3.65;;;1.40;;
23406;SDS011;11876;53.438;18.942;2023-07-31T09:54:12;2.38;;;1.17;;
23406;SDS011;11876;53.438;18.942;2023-07-31T09:59:16;2.75;;;1.38;;
23406;SDS011;11876;53.438;18.942;2023-07-31T10:04:26;5.13;;;1.35;;
23406;SDS011;11876;53.438;18.942;2023-07-31T10:09:29;2.00;;;1.17;;
23406;SDS011;11876;53.438;18.942;2023-07-31T10:14:33;2.85;;;1.38;;
23406;SDS011;11876;53.438;18.942;2023-07-31T10:19:36;3.85;;;1.10;;
23406;SDS011;11876;53.438;18.942;2023-07-31T10:24:38;2.90;;;1.40;;
23406;SDS011;11876;53.438;18.942;2023-07-31T10:29:43;6.97;;;1.38;;
23406;SDS011;11876;53.438;18.942;2023-07-31T10:34:46;3.13;;;1.25;;
23406;SDS011;11876;53.438;18.942;2023-07-31T10:39:56;2.38;;;1.30;;
23406;SDS011;11876;53.438;18.942;2023-07-31T10:45:05;3.97;;;2.13;;
23406;SDS011;11876;53.438;18.942;2023-07-31T10:50:19;4.38;;;1.20;;
23406;SDS011;11876;53.438;18.942;2023-07-31T10:58:28;3.65;;;1.33;;
23406;SDS011;11876;53.438;18.942;2023-07-31T11:03:43;2.03;;;1.63;;
23406;SDS011;11876;53.438;18.942;2023-07-31T11:08:50;5.20;;;1.70;;
23406;SDS011;11876;53.438;18.942;2023-07-31T11:13:53;3.80;;;1.60;;
23406;SDS011;11876;53.438;18.942;2023-07-31T11:18:56;4.03;;;1.45;;
23406;SDS011;11876;53.438;18.942;2023-07-31T11:23:59;4.70;;;1.70;;
23406;SDS011;11876;53.438;18.942;2023-07-31T11:29:01;5.45;;;1.80;;
23406;SDS011;11876;53.438;18.942;2023-07-31T11:34:07;9.25;;;3.03;;
23406;SDS011;11876;53.438;18.942;2023-07-31T11:39:09;3.83;;;2.72;;
23406;SDS011;11876;53.438;18.942;2023-07-31T11:44:12;5.20;;;2.83;;
23406;SDS011;11876;53.438;18.942;2023-07-31T11:49:28;5.18;;;3.00;;
23406;SDS011;11876;53.438;18.942;2023-07-31T11:54:31;5.10;;;3.30;;
23406;SDS011;11876;53.438;18.942;2023-07-31T11:59:34;6.50;;;3.67;;
23406;SDS011;11876;53.438;18.942;2023-07-31T12:04:38;5.78;;;3.35;;
23406;SDS011;11876;53.438;18.942;2023-07-31T12:09:53;13.00;;;3.20;;
23406;SDS011;11876;53.438;18.942;2023-07-31T12:14:56;7.40;;;3.47;;
23406;SDS011;11876;53.438;18.942;2023-07-31T12:19:59;6.90;;;3.72;;
23406;SDS011;11876;53.438;18.942;2023-07-31T12:25:02;6.80;;;3.13;;
23406;SDS011;11876;53.438;18.942;2023-07-31T12:30:05;5.70;;;3.20;;
23406;SDS011;11876;53.438;18.942;2023-07-31T12:35:09;12.95;;;2.97;;
23406;SDS011;11876;53.438;18.942;2023-07-31T12:40:11;7.68;;;3.38;;
23406;SDS011;11876;53.438;18.942;2023-07-31T12:45:14;3.05;;;2.20;;
23406;SDS011;11876;53.438;18.942;2023-07-31T12:50:16;6.43;;;2.92;;
23406;SDS011;11876;53.438;18.942;2023-07-31T12:55:19;8.25;;;4.32;;
23406;SDS011;11876;53.438;18.942;2023-07-31T13:00:22;5.43;;;2.53;;
23406;SDS011;11876;53.438;18.942;2023-07-31T13:05:24;3.60;;;2.25;;
23406;SDS011;11876;53.438;18.942;2023-07-31T13:10:27;3.28;;;2.63;;
23406;SDS011;11876;53.438;18.942;2023-07-31T13:15:30;7.85;;;2.97;;
23406;SDS011;11876;53.438;18.942;2023-07-31T13:20:33;4.15;;;2.10;;
23406;SDS011;11876;53.438;18.942;2023-07-31T13:25:35;5.18;;;2.50;;
23406;SDS011;11876;53.438;18.942;2023-07-31T13:30:38;6.03;;;1.70;;
23406;SDS011;11876;53.438;18.942;2023-07-31T13:35:43;14.68;;;2.38;;
23406;SDS011;11876;53.438;18.942;2023-07-31T13:40:45;3.58;;;1.70;;
23406;SDS011;11876;53.438;18.942;2023-07-31T13:45:48;3.15;;;1.42;;
23406;SDS011;11876;53.438;18.942;2023-07-31T13:50:50;2.35;;;1.13;;
23406;SDS011;11876;53.438;18.942;2023-07-31T13:55:52;2.53;;;1.20;;
23406;SDS011;11876;53.438;18.942;2023-07-31T14:00:55;1.95;;;1.20;;
23406;SDS011;11876;53.438;18.942;2023-07-31T14:05:57;3.75;;;1.35;;
23406;SDS011;11876;53.438;18.942;2023-07-31T14:11:00;2.63;;;1.30;;
23406;SDS011;11876;53.438;18.942;2023-07-31T14:16:03;2.88;;;1.98;;
23406;SDS011;11876;53.438;18.942;2023-07-31T14:21:05;7.13;;;2.85;;
23406;SDS011;11876;53.438;18.942;2023-07-31T14:26:08;4.03;;;2.08;;
23406;SDS011;11876;53.438;18.942;2023-07-31T14:31:10;1.75;;;1.65;;
23406;SDS011;11876;53.438;18.942;2023-07-31T14:36:13;3.05;;;1.45;;
23406;SDS011;11876;53.438;18.942;2023-07-31T14:41:15;3.47;;;1.75;;
23406;SDS011;11876;53.438;18.942;2023-07-31T14:46:18;4.22;;;2.50;;
23406;SDS011;11876;53.438;18.942;2023-07-31T14:51:20;3.42;;;2.13;;
23406;SDS011;11876;53.438;18.942;2023-07-31T14:56:23;5.68;;;3.03;;
23406;SDS011;11876;53.438;18.942;2023-07-31T15:01:25;3.45;;;2.40;;
23406;SDS011;11876;53.438;18.942;2023-07-31T15:06:28;4.93;;;2.35;;
23406;SDS011;11876;53.438;18.942;2023-07-31T15:11:30;3.90;;;2.10;;
23406;SDS011;11876;53.438;18.942;2023-07-31T15:16:33;6.00;;;2.38;;
23406;SDS011;11876;53.438;18.942;2023-07-31T15:21:39;3.28;;;2.33;;
23406;SDS011;11876;53.438;18.942;2023-07-31T15:26:41;11.73;;;9.77;;
23406;SDS011;11876;53.438;18.942;2023-07-31T15:31:43;9.40;;;5.20;;
23406;SDS011;11876;53.438;18.942;2023-07-31T15:36:46;5.25;;;2.65;;
23406;SDS011;11876;53.438;18.942;2023-07-31T15:41:49;10.13;;;2.85;;
23406;SDS011;11876;53.438;18.942;2023-07-31T15:46:51;4.10;;;2.03;;
23406;SDS011;11876;53.438;18.942;2023-07-31T15:51:54;3.28;;;2.13;;
23406;SDS011;11876;53.438;18.942;2023-07-31T15:56:56;4.65;;;2.00;;
23406;SDS011;11876;53.438;18.942;2023-07-31T16:01:59;3.88;;;2.83;;
23406;SDS011;11876;53.438;18.942;2023-07-31T16:07:01;3.78;;;1.40;;
23406;SDS011;11876;53.438;18.942;2023-07-31T16:12:04;1.70;;;1.10;;
23406;SDS011;11876;53.438;18.942;2023-07-31T16:17:07;2.15;;;1.45;;
23406;SDS011;11876;53.438;18.942;2023-07-31T16:22:09;3.40;;;1.45;;
23406;SDS011;11876;53.438;18.942;2023-07-31T16:27:12;3.67;;;1.80;;
23406;SDS011;11876;53.438;18.942;2023-07-31T16:32:14;2.55;;;1.58;;
23406;SDS011;11876;53.438;18.942;2023-07-31T16:37:17;4.07;;;1.90;;
23406;SDS011;11876;53.438;18.942;2023-07-31T16:42:19;3.30;;;2.42;;
23406;SDS011;11876;53.438;18.942;2023-07-31T16:47:22;1.70;;;1.60;;
23406;SDS011;11876;53.438;18.942;2023-07-31T16:52:25;2.72;;;1.98;;
23406;SDS011;11876;53.438;18.942;2023-07-31T16:57:29;2.65;;;2.20;;
23406;SDS011;11876;53.438;18.942;2023-07-31T17:02:32;4.65;;;2.47;;
23406;SDS011;11876;53.438;18.942;2023-07-31T17:07:35;4.18;;;2.28;;
23406;SDS011;11876;53.438;18.942;2023-07-31T17:12:37;5.78;;;2.40;;
23406;SDS011;11876;53.438;18.942;2023-07-31T17:17:40;2.42;;;2.00;;
23406;SDS011;11876;53.438;18.942;2023-07-31T17:22:42;3.53;;;2.10;;
23406;SDS011;11876;53.438;18.942;2023-07-31T17:27:49;3.35;;;2.28;;
23406;SDS011;11876;53.438;18.942;2023-07-31T17:32:54;2.47;;;2.10;;
23406;SDS011;11876;53.438;18.942;2023-07-31T17:37:56;3.63;;;2.17;;
23406;SDS011;11876;53.438;18.942;2023-07-31T17:42:59;2.50;;;2.30;;
23406;SDS011;11876;53.438;18.942;2023-07-31T17:48:02;3.13;;;2.30;;
23406;SDS011;11876;53.438;18.942;2023-07-31T17:53:04;2.60;;;2.10;;
23406;SDS011;11876;53.438;18.942;2023-07-31T17:58:08;2.40;;;1.77;;
23406;SDS011;11876;53.438;18.942;2023-07-31T18:03:10;2.33;;;2.13;;
23406;SDS011;11876;53.438;18.942;2023-07-31T18:08:14;2.92;;;2.30;;
23406;SDS011;11876;53.438;18.942;2023-07-31T18:13:17;3.33;;;2.30;;
23406;SDS011;11876;53.438;18.942;2023-07-31T18:18:19;3.47;;;2.10;;
23406;SDS011;11876;53.438;18.942;2023-07-31T18:23:22;3.08;;;2.03;;
23406;SDS011;11876;53.438;18.942;2023-07-31T18:28:24;4.57;;;2.78;;
23406;SDS011;11876;53.438;18.942;2023-07-31T18:33:27;3.08;;;2.58;;
23406;SDS011;11876;53.438;18.942;2023-07-31T18:38:29;4.03;;;2.90;;
23406;SDS011;11876;53.438;18.942;2023-07-31T18:43:33;3.63;;;2.70;;
23406;SDS011;11876;53.438;18.942;2023-07-31T18:48:36;3.53;;;2.55;;
23406;SDS011;11876;53.438;18.942;2023-07-31T18:53:39;3.15;;;2.85;;
23406;SDS011;11876;53.438;18.942;2023-07-31T18:58:42;3.58;;;2.90;;
23406;SDS011;11876;53.438;18.942;2023-07-31T19:03:44;2.58;;;2.38;;
23406;SDS011;11876;53.438;18.942;2023-07-31T19:08:47;4.10;;;2.58;;
23406;SDS011;11876;53.438;18.942;2023-07-31T19:13:49;3.83;;;2.90;;
23406;SDS011;11876;53.438;18.942;2023-07-31T19:18:52;4.72;;;3.03;;
23406;SDS011;11876;53.438;18.942;2023-07-31T19:23:54;4.70;;;3.10;;
23406;SDS011;11876;53.438;18.942;2023-07-31T19:28:57;3.97;;;2.83;;
23406;SDS011;11876;53.438;18.942;2023-07-31T19:33:59;3.38;;;2.97;;
23406;SDS011;11876;53.438;18.942;2023-07-31T19:39:02;4.88;;;2.90;;
23406;SDS011;11876;53.438;18.942;2023-07-31T19:44:05;4.57;;;2.97;;
23406;SDS011;11876;53.438;18.942;2023-07-31T19:49:08;3.42;;;2.92;;
23406;SDS011;11876;53.438;18.942;2023-07-31T19:54:10;4.57;;;3.22;;
23406;SDS011;11876;53.438;18.942;2023-07-31T19:59:13;5.07;;;3.03;;
23406;SDS011;11876;53.438;18.942;2023-07-31T20:04:15;6.00;;;3.08;;
23406;SDS011;11876;53.438;18.942;2023-07-31T20:09:18;4.68;;;3.65;;
23406;SDS011;11876;53.438;18.942;2023-07-31T20:14:20;3.75;;;3.33;;
23406;SDS011;11876;53.438;18.942;2023-07-31T20:19:23;4.45;;;3.17;;
23406;SDS011;11876;53.438;18.942;2023-07-31T20:24:25;6.68;;;3.83;;
23406;SDS011;11876;53.438;18.942;2023-07-31T20:29:27;6.22;;;3.35;;
23406;SDS011;11876;53.438;18.942;2023-07-31T20:34:30;5.13;;;3.47;;
23406;SDS011;11876;53.438;18.942;2023-07-31T20:39:32;7.78;;;4.18;;
23406;SDS011;11876;53.438;18.942;2023-07-31T20:44:35;6.95;;;3.47;;
23406;SDS011;11876;53.438;18.942;2023-07-31T20:49:37;4.68;;;3.40;;
23406;SDS011;11876;53.438;18.942;2023-07-31T20:54:40;3.47;;;3.08;;
23406;SDS011;11876;53.438;18.942;2023-07-31T20:59:42;3.95;;;3.17;;
23406;SDS011;11876;53.438;18.942;2023-07-31T21:04:45;5.13;;;3.40;;
23406;SDS011;11876;53.438;18.942;2023-07-31T21:09:48;5.45;;;3.80;;
23406;SDS011;11876;53.438;18.942;2023-07-31T21:14:50;4.55;;;3.42;;
23406;SDS011;11876;53.438;18.942;2023-07-31T21:19:53;4.50;;;2.90;;
23406;SDS011;11876;53.438;18.942;2023-07-31T21:24:56;5.07;;;3.22;;
23406;SDS011;11876;53.438;18.942;2023-07-31T21:29:58;5.95;;;3.30;;
23406;SDS011;11876;53.438;18.942;2023-07-31T21:35:01;5.15;;;3.50;;
23406;SDS011;11876;53.438;18.942;2023-07-31T21:40:04;3.45;;;3.10;;
23406;SDS011;11876;53.438;18.942;2023-07-31T21:45:07;3.25;;;2.92;;
23406;SDS011;11876;53.438;18.942;2023-07-31T21:50:09;4.65;;;3.00;;
23406;SDS011;11876;53.438;18.942;2023-07-31T21:55:12;4.18;;;2.40;;
23406;SDS011;11876;53.438;18.942;2023-07-31T22:00:15;4.78;;;2.97;;
23406;SDS011;11876;53.438;18.942;2023-07-31T22:05:17;4.68;;;2.72;;
23406;SDS011;11876;53.438;18.942;2023-07-31T22:10:20;4.63;;;3.33;;
23406;SDS011;11876;53.438;18.942;2023-07-31T22:15:22;5.03;;;3.30;;
23406;SDS011;11876;53.438;18.942;2023-07-31T22:20:25;5.07;;;3.45;;
23406;SDS011;11876;53.438;18.942;2023-07-31T22:25:27;5.40;;;3.10;;
23406;SDS011;11876;53.438;18.942;2023-07-31T22:30:30;4.15;;;2.83;;
23406;SDS011;11876;53.438;18.942;2023-07-31T22:35:32;4.63;;;2.80;;
23406;SDS011;11876;53.438;18.942;2023-07-31T22:40:36;6.65;;;3.38;;
23406;SDS011;11876;53.438;18.942;2023-07-31T22:45:43;4.18;;;3.15;;
23406;SDS011;11876;53.438;18.942;2023-07-31T22:50:47;8.00;;;3.60;;
23406;SDS011;11876;53.438;18.942;2023-07-31T22:55:49;7.15;;;3.10;;
23406;SDS011;11876;53.438;18.942;2023-07-31T23:00:59;5.05;;;3.10;;
23406;SDS011;11876;53.438;18.942;2023-07-31T23:06:03;4.00;;;3.20;;
23406;SDS011;11876;53.438;18.942;2023-07-31T23:11:05;4.63;;;3.35;;
23406;SDS011;11876;53.438;18.942;2023-07-31T23:16:07;5.70;;;3.42;;
23406;SDS011;11876;53.438;18.942;2023-07-31T23:21:10;4.00;;;3.35;;
23406;SDS011;11876;53.438;18.942;2023-07-31T23:26:13;3.83;;;2.88;;
23406;SDS011;11876;53.438;18.942;2023-07-31T23:31:15;7.63;;;3.10;;
23406;SDS011;11876;53.438;18.942;2023-07-31T23:36:17;3.95;;;2.88;;
23406;SDS011;11876;53.438;18.942;2023-07-31T23:41:20;3.08;;;2.65;;
23406;SDS011;11876;53.438;18.942;2023-07-31T23:46:23;4.03;;;2.88;;
23406;SDS011;11876;53.438;18.942;2023-07-31T23:51:25;5.68;;;2.85;;
23406;SDS011;11876;53.438;18.942;2023-07-31T23:56:28;3.88;;;2.90;;
